NY06 weather

Gaines Valley Aviation Airport
Albion, New York, United States

Public forecast

Using degrees Fahrenheit for public forecast. Weather courtesy of forecast.io.

METAR (pilot weather report)

Closest report is Greater Rochester International Airport, 26.0 nm (48.1 km) ESE. Retrieved 2019/06/17 16:54 UTC (1 hour ago):

KROC 171654Z 06007KT 10SM FEW040 SCT250 22/12 A3002 RMK AO2 SLP168 T02220117

TAF (pilot weather forecast)

Closest forecast is Greater Rochester International Airport, 26.0 nm (48.1 km) ESE. Retrieved 2019/06/17 12:22 UTC (6 hours ago):

TAF KROC 171120Z 1712/1812 VRB03KT P6SM BKN100 FM171600 05007KT P6SM BKN090 FM180200 VRB03KT P6SM BKN060